sensor_id;sensor_type;location;lat;lon;timestamp;temperature;humidity
77700;DHT22;66867;42.658;23.320;2023-07-20T00:00:00;25.0;59
77700;DHT22;66867;42.658;23.320;2023-07-20T00:01:00;25.0;59
77700;DHT22;66867;42.658;23.320;2023-07-20T00:02:00;25.0;59
77700;DHT22;66867;42.658;23.320;2023-07-20T00:03:15;25.0;58
77700;DHT22;66867;42.658;23.320;2023-07-20T00:04:00;25.1;58
77700;DHT22;66867;42.658;23.320;2023-07-20T00:05:00;25.1;58
77700;DHT22;66867;42.658;23.320;2023-07-20T00:06:00;25.1;58
77700;DHT22;66867;42.658;23.320;2023-07-20T00:07:00;25.1;58
77700;DHT22;66867;42.658;23.320;2023-07-20T00:08:00;25.0;58
77700;DHT22;66867;42.658;23.320;2023-07-20T00:09:00;25.0;57
77700;DHT22;66867;42.658;23.320;2023-07-20T00:10:00;25.0;57
77700;DHT22;66867;42.658;23.320;2023-07-20T00:11:00;25.0;57
77700;DHT22;66867;42.658;23.320;2023-07-20T00:12:00;25.0;58
77700;DHT22;66867;42.658;23.320;2023-07-20T00:13:00;25.0;57
77700;DHT22;66867;42.658;23.320;2023-07-20T00:14:00;25.0;58
77700;DHT22;66867;42.658;23.320;2023-07-20T00:15:00;25.0;58
77700;DHT22;66867;42.658;23.320;2023-07-20T00:16:00;25.0;58
77700;DHT22;66867;42.658;23.320;2023-07-20T00:17:00;25.0;58
77700;DHT22;66867;42.658;23.320;2023-07-20T00:18:00;25.0;59
77700;DHT22;66867;42.658;23.320;2023-07-20T00:19:00;25.0;58
77700;DHT22;66867;42.658;23.320;2023-07-20T00:20:00;25.1;58
77700;DHT22;66867;42.658;23.320;2023-07-20T00:21:00;25.0;59
77700;DHT22;66867;42.658;23.320;2023-07-20T00:22:00;25.0;59
77700;DHT22;66867;42.658;23.320;2023-07-20T00:23:00;25.0;59
77700;DHT22;66867;42.658;23.320;2023-07-20T00:24:00;25.0;59
77700;DHT22;66867;42.658;23.320;2023-07-20T00:25:00;25.0;59
77700;DHT22;66867;42.658;23.320;2023-07-20T00:26:00;25.0;59
77700;DHT22;66867;42.658;23.320;2023-07-20T00:27:00;25.0;59
77700;DHT22;66867;42.658;23.320;2023-07-20T00:28:00;25.0;59
77700;DHT22;66867;42.658;23.320;2023-07-20T00:29:00;24.9;60
77700;DHT22;66867;42.658;23.320;2023-07-20T00:30:00;25.0;61
77700;DHT22;66867;42.658;23.320;2023-07-20T00:31:00;25.0;61
77700;DHT22;66867;42.658;23.320;2023-07-20T00:32:00;24.9;61
77700;DHT22;66867;42.658;23.320;2023-07-20T00:33:00;24.9;61
77700;DHT22;66867;42.658;23.320;2023-07-20T00:34:00;24.9;61
77700;DHT22;66867;42.658;23.320;2023-07-20T00:35:00;24.9;60
77700;DHT22;66867;42.658;23.320;2023-07-20T00:36:00;24.9;60
77700;DHT22;66867;42.658;23.320;2023-07-20T00:37:00;24.9;60
77700;DHT22;66867;42.658;23.320;2023-07-20T00:38:00;24.9;60
77700;DHT22;66867;42.658;23.320;2023-07-20T00:39:00;24.9;59
77700;DHT22;66867;42.658;23.320;2023-07-20T00:40:00;24.9;59
77700;DHT22;66867;42.658;23.320;2023-07-20T00:41:00;24.9;59
77700;DHT22;66867;42.658;23.320;2023-07-20T00:42:00;24.9;59
77700;DHT22;66867;42.658;23.320;2023-07-20T00:43:00;24.9;59
77700;DHT22;66867;42.658;23.320;2023-07-20T00:44:00;24.9;59
77700;DHT22;66867;42.658;23.320;2023-07-20T00:45:00;24.9;60
77700;DHT22;66867;42.658;23.320;2023-07-20T00:46:00;24.9;60
77700;DHT22;66867;42.658;23.320;2023-07-20T00:47:00;24.9;60
77700;DHT22;66867;42.658;23.320;2023-07-20T00:48:01;24.9;60
77700;DHT22;66867;42.658;23.320;2023-07-20T00:49:00;24.9;60
77700;DHT22;66867;42.658;23.320;2023-07-20T00:50:00;24.9;61
77700;DHT22;66867;42.658;23.320;2023-07-20T00:51:00;24.8;61
77700;DHT22;66867;42.658;23.320;2023-07-20T00:52:00;24.8;61
77700;DHT22;66867;42.658;23.320;2023-07-20T00:53:00;24.8;61
77700;DHT22;66867;42.658;23.320;2023-07-20T00:54:00;24.8;62
77700;DHT22;66867;42.658;23.320;2023-07-20T00:55:00;24.8;62
77700;DHT22;66867;42.658;23.320;2023-07-20T00:56:00;24.8;61
77700;DHT22;66867;42.658;23.320;2023-07-20T00:57:00;24.8;61
77700;DHT22;66867;42.658;23.320;2023-07-20T00:58:00;24.8;61
77700;DHT22;66867;42.658;23.320;2023-07-20T00:59:00;24.8;61
77700;DHT22;66867;42.658;23.320;2023-07-20T01:00:00;24.8;61
77700;DHT22;66867;42.658;23.320;2023-07-20T01:01:00;24.8;61
77700;DHT22;66867;42.658;23.320;2023-07-20T01:02:00;24.8;61
77700;DHT22;66867;42.658;23.320;2023-07-20T01:03:00;24.7;61
77700;DHT22;66867;42.658;23.320;2023-07-20T01:04:00;24.7;61
77700;DHT22;66867;42.658;23.320;2023-07-20T01:05:00;24.7;61
77700;DHT22;66867;42.658;23.320;2023-07-20T01:06:04;24.7;62
77700;DHT22;66867;42.658;23.320;2023-07-20T01:07:01;24.7;62
77700;DHT22;66867;42.658;23.320;2023-07-20T01:08:02;24.7;62
77700;DHT22;66867;42.658;23.320;2023-07-20T01:11:04;24.6;62
77700;DHT22;66867;42.658;23.320;2023-07-20T01:12:08;24.6;62
77700;DHT22;66867;42.658;23.320;2023-07-20T01:13:00;24.6;62
77700;DHT22;66867;42.658;23.320;2023-07-20T01:14:00;24.6;63
77700;DHT22;66867;42.658;23.320;2023-07-20T01:15:00;24.6;63
77700;DHT22;66867;42.658;23.320;2023-07-20T01:16:00;24.6;62
77700;DHT22;66867;42.658;23.320;2023-07-20T01:17:01;24.6;63
77700;DHT22;66867;42.658;23.320;2023-07-20T01:18:00;24.6;63
77700;DHT22;66867;42.658;23.320;2023-07-20T01:19:00;24.5;63
77700;DHT22;66867;42.658;23.320;2023-07-20T01:20:00;24.5;63
77700;DHT22;66867;42.658;23.320;2023-07-20T01:21:05;24.5;63
77700;DHT22;66867;42.658;23.320;2023-07-20T01:22:03;24.4;63
77700;DHT22;66867;42.658;23.320;2023-07-20T01:25:20;24.4;64
77700;DHT22;66867;42.658;23.320;2023-07-20T01:27:09;24.3;64
77700;DHT22;66867;42.658;23.320;2023-07-20T01:30:08;24.2;65
77700;DHT22;66867;42.658;23.320;2023-07-20T01:31:32;24.2;65
77700;DHT22;66867;42.658;23.320;2023-07-20T01:32:00;24.2;65
77700;DHT22;66867;42.658;23.320;2023-07-20T01:33:00;24.2;65
77700;DHT22;66867;42.658;23.320;2023-07-20T01:34:00;24.2;65
77700;DHT22;66867;42.658;23.320;2023-07-20T01:35:00;24.2;65
77700;DHT22;66867;42.658;23.320;2023-07-20T01:36:00;24.2;65
77700;DHT22;66867;42.658;23.320;2023-07-20T01:37:00;24.2;65
77700;DHT22;66867;42.658;23.320;2023-07-20T01:38:00;24.2;65
77700;DHT22;66867;42.658;23.320;2023-07-20T01:39:00;24.1;65
77700;DHT22;66867;42.658;23.320;2023-07-20T01:40:00;24.2;66
77700;DHT22;66867;42.658;23.320;2023-07-20T01:41:00;24.1;66
77700;DHT22;66867;42.658;23.320;2023-07-20T01:42:00;24.2;66
77700;DHT22;66867;42.658;23.320;2023-07-20T01:43:00;24.1;66
77700;DHT22;66867;42.658;23.320;2023-07-20T01:44:00;24.1;66
77700;DHT22;66867;42.658;23.320;2023-07-20T01:45:00;24.1;66
77700;DHT22;66867;42.658;23.320;2023-07-20T01:46:00;24.1;66
77700;DHT22;66867;42.658;23.320;2023-07-20T01:47:00;24.1;66
77700;DHT22;66867;42.658;23.320;2023-07-20T01:48:00;24.1;66
77700;DHT22;66867;42.658;23.320;2023-07-20T01:49:00;24.1;66
77700;DHT22;66867;42.658;23.320;2023-07-20T01:50:00;24.0;66
77700;DHT22;66867;42.658;23.320;2023-07-20T01:51:00;24.0;66
77700;DHT22;66867;42.658;23.320;2023-07-20T01:52:00;24.0;66
77700;DHT22;66867;42.658;23.320;2023-07-20T01:53:00;24.0;66
77700;DHT22;66867;42.658;23.320;2023-07-20T01:54:00;24.0;66
77700;DHT22;66867;42.658;23.320;2023-07-20T01:55:00;24.0;66
77700;DHT22;66867;42.658;23.320;2023-07-20T01:56:00;24.0;66
77700;DHT22;66867;42.658;23.320;2023-07-20T01:57:00;24.0;66
77700;DHT22;66867;42.658;23.320;2023-07-20T01:58:00;23.9;66
77700;DHT22;66867;42.658;23.320;2023-07-20T01:59:00;23.9;66
77700;DHT22;66867;42.658;23.320;2023-07-20T02:00:00;23.9;67
77700;DHT22;66867;42.658;23.320;2023-07-20T02:01:00;23.9;66
77700;DHT22;66867;42.658;23.320;2023-07-20T02:02:00;23.9;66
77700;DHT22;66867;42.658;23.320;2023-07-20T02:03:00;23.9;66
77700;DHT22;66867;42.658;23.320;2023-07-20T02:04:00;23.8;66
77700;DHT22;66867;42.658;23.320;2023-07-20T02:05:00;23.8;67
77700;DHT22;66867;42.658;23.320;2023-07-20T02:06:00;23.8;67
77700;DHT22;66867;42.658;23.320;2023-07-20T02:07:00;23.9;66
77700;DHT22;66867;42.658;23.320;2023-07-20T02:08:00;23.9;66
77700;DHT22;66867;42.658;23.320;2023-07-20T02:09:00;23.8;66
77700;DHT22;66867;42.658;23.320;2023-07-20T02:10:00;23.8;67
77700;DHT22;66867;42.658;23.320;2023-07-20T02:11:00;23.8;67
77700;DHT22;66867;42.658;23.320;2023-07-20T02:12:00;23.8;67
77700;DHT22;66867;42.658;23.320;2023-07-20T02:13:00;23.8;67
77700;DHT22;66867;42.658;23.320;2023-07-20T02:14:00;23.8;67
77700;DHT22;66867;42.658;23.320;2023-07-20T02:15:01;23.8;67
77700;DHT22;66867;42.658;23.320;2023-07-20T02:16:00;23.8;67
77700;DHT22;66867;42.658;23.320;2023-07-20T02:17:00;23.7;67
77700;DHT22;66867;42.658;23.320;2023-07-20T02:18:00;23.7;67
77700;DHT22;66867;42.658;23.320;2023-07-20T02:19:00;23.7;67
77700;DHT22;66867;42.658;23.320;2023-07-20T02:20:00;23.7;67
77700;DHT22;66867;42.658;23.320;2023-07-20T02:21:00;23.7;67
77700;DHT22;66867;42.658;23.320;2023-07-20T02:22:00;23.7;68
77700;DHT22;66867;42.658;23.320;2023-07-20T02:23:00;23.7;68
77700;DHT22;66867;42.658;23.320;2023-07-20T02:24:00;23.6;68
77700;DHT22;66867;42.658;23.320;2023-07-20T02:25:00;23.6;68
77700;DHT22;66867;42.658;23.320;2023-07-20T02:26:00;23.6;68
77700;DHT22;66867;42.658;23.320;2023-07-20T02:27:00;23.6;68
77700;DHT22;66867;42.658;23.320;2023-07-20T02:28:00;23.6;68
77700;DHT22;66867;42.658;23.320;2023-07-20T02:29:00;23.6;68
77700;DHT22;66867;42.658;23.320;2023-07-20T02:30:00;23.6;68
77700;DHT22;66867;42.658;23.320;2023-07-20T02:31:00;23.5;68
77700;DHT22;66867;42.658;23.320;2023-07-20T02:32:00;23.5;68
77700;DHT22;66867;42.658;23.320;2023-07-20T02:33:00;23.5;68
77700;DHT22;66867;42.658;23.320;2023-07-20T02:34:00;23.5;69
77700;DHT22;66867;42.658;23.320;2023-07-20T02:35:00;23.5;69
77700;DHT22;66867;42.658;23.320;2023-07-20T02:36:00;23.5;69
77700;DHT22;66867;42.658;23.320;2023-07-20T02:37:00;23.5;69
77700;DHT22;66867;42.658;23.320;2023-07-20T02:38:00;23.4;69
77700;DHT22;66867;42.658;23.320;2023-07-20T02:39:00;23.4;69
77700;DHT22;66867;42.658;23.320;2023-07-20T02:40:00;23.4;69
77700;DHT22;66867;42.658;23.320;2023-07-20T02:41:00;23.4;69
77700;DHT22;66867;42.658;23.320;2023-07-20T02:42:00;23.4;69
77700;DHT22;66867;42.658;23.320;2023-07-20T02:43:00;23.3;69
77700;DHT22;66867;42.658;23.320;2023-07-20T02:44:00;23.3;70
77700;DHT22;66867;42.658;23.320;2023-07-20T02:45:01;23.4;70
77700;DHT22;66867;42.658;23.320;2023-07-20T02:46:00;23.4;70
77700;DHT22;66867;42.658;23.320;2023-07-20T02:47:00;23.3;70
77700;DHT22;66867;42.658;23.320;2023-07-20T02:48:00;23.3;70
77700;DHT22;66867;42.658;23.320;2023-07-20T02:49:00;23.3;70
77700;DHT22;66867;42.658;23.320;2023-07-20T02:50:00;23.3;70
77700;DHT22;66867;42.658;23.320;2023-07-20T02:51:00;23.3;70
77700;DHT22;66867;42.658;23.320;2023-07-20T02:52:00;23.3;70
77700;DHT22;66867;42.658;23.320;2023-07-20T02:53:00;23.2;70
77700;DHT22;66867;42.658;23.320;2023-07-20T02:54:00;23.2;70
77700;DHT22;66867;42.658;23.320;2023-07-20T02:55:00;23.2;70
77700;DHT22;66867;42.658;23.320;2023-07-20T02:56:00;23.2;70
77700;DHT22;66867;42.658;23.320;2023-07-20T02:57:00;23.3;70
77700;DHT22;66867;42.658;23.320;2023-07-20T02:58:00;23.2;69
77700;DHT22;66867;42.658;23.320;2023-07-20T02:59:01;23.2;70
77700;DHT22;66867;42.658;23.320;2023-07-20T03:00:01;23.2;70
77700;DHT22;66867;42.658;23.320;2023-07-20T03:01:00;23.1;70
77700;DHT22;66867;42.658;23.320;2023-07-20T03:02:00;23.1;70
77700;DHT22;66867;42.658;23.320;2023-07-20T03:03:00;23.1;70
77700;DHT22;66867;42.658;23.320;2023-07-20T03:04:00;23.1;70
77700;DHT22;66867;42.658;23.320;2023-07-20T03:05:00;23.0;70
77700;DHT22;66867;42.658;23.320;2023-07-20T03:06:00;23.0;71
77700;DHT22;66867;42.658;23.320;2023-07-20T03:07:00;23.0;71
77700;DHT22;66867;42.658;23.320;2023-07-20T03:08:00;23.0;71
77700;DHT22;66867;42.658;23.320;2023-07-20T03:09:00;23.0;71
77700;DHT22;66867;42.658;23.320;2023-07-20T03:10:00;23.0;71
77700;DHT22;66867;42.658;23.320;2023-07-20T03:11:00;23.0;71
77700;DHT22;66867;42.658;23.320;2023-07-20T03:12:00;23.0;71
77700;DHT22;66867;42.658;23.320;2023-07-20T03:13:00;23.0;71
77700;DHT22;66867;42.658;23.320;2023-07-20T03:14:00;22.9;71
77700;DHT22;66867;42.658;23.320;2023-07-20T03:15:01;22.9;71
77700;DHT22;66867;42.658;23.320;2023-07-20T03:16:00;22.9;71
77700;DHT22;66867;42.658;23.320;2023-07-20T03:17:00;22.9;71
77700;DHT22;66867;42.658;23.320;2023-07-20T03:18:00;22.9;71
77700;DHT22;66867;42.658;23.320;2023-07-20T03:19:00;22.8;72
77700;DHT22;66867;42.658;23.320;2023-07-20T03:20:00;22.8;72
77700;DHT22;66867;42.658;23.320;2023-07-20T03:21:00;22.8;72
77700;DHT22;66867;42.658;23.320;2023-07-20T03:22:00;22.8;72
77700;DHT22;66867;42.658;23.320;2023-07-20T03:23:00;22.8;72
77700;DHT22;66867;42.658;23.320;2023-07-20T03:24:00;22.8;72
77700;DHT22;66867;42.658;23.320;2023-07-20T03:25:00;22.8;72
77700;DHT22;66867;42.658;23.320;2023-07-20T03:26:00;22.8;72
77700;DHT22;66867;42.658;23.320;2023-07-20T03:27:00;22.8;72
77700;DHT22;66867;42.658;23.320;2023-07-20T03:28:00;22.8;72
77700;DHT22;66867;42.658;23.320;2023-07-20T03:29:00;22.8;72
77700;DHT22;66867;42.658;23.320;2023-07-20T03:30:00;22.8;72
77700;DHT22;66867;42.658;23.320;2023-07-20T03:31:00;22.8;72
77700;DHT22;66867;42.658;23.320;2023-07-20T03:32:00;22.8;72
77700;DHT22;66867;42.658;23.320;2023-07-20T03:33:00;22.7;72
77700;DHT22;66867;42.658;23.320;2023-07-20T03:34:00;22.8;72
77700;DHT22;66867;42.658;23.320;2023-07-20T03:35:00;22.7;72
77700;DHT22;66867;42.658;23.320;2023-07-20T03:36:00;22.7;72
77700;DHT22;66867;42.658;23.320;2023-07-20T03:37:00;22.7;73
77700;DHT22;66867;42.658;23.320;2023-07-20T03:38:00;22.7;73
77700;DHT22;66867;42.658;23.320;2023-07-20T03:39:00;22.7;73
77700;DHT22;66867;42.658;23.320;2023-07-20T03:40:00;22.7;73
77700;DHT22;66867;42.658;23.320;2023-07-20T03:41:00;22.7;73
77700;DHT22;66867;42.658;23.320;2023-07-20T03:42:00;22.7;73
77700;DHT22;66867;42.658;23.320;2023-07-20T03:43:00;22.7;73
77700;DHT22;66867;42.658;23.320;2023-07-20T03:44:00;22.7;73
77700;DHT22;66867;42.658;23.320;2023-07-20T03:45:00;22.8;73
77700;DHT22;66867;42.658;23.320;2023-07-20T03:46:00;22.8;73
77700;DHT22;66867;42.658;23.320;2023-07-20T03:47:00;22.7;73
77700;DHT22;66867;42.658;23.320;2023-07-20T03:48:00;22.7;73
77700;DHT22;66867;42.658;23.320;2023-07-20T03:49:00;22.8;72
77700;DHT22;66867;42.658;23.320;2023-07-20T03:50:00;22.8;72
77700;DHT22;66867;42.658;23.320;2023-07-20T03:51:00;22.8;73
77700;DHT22;66867;42.658;23.320;2023-07-20T03:52:00;22.8;73
77700;DHT22;66867;42.658;23.320;2023-07-20T03:53:00;22.8;73
77700;DHT22;66867;42.658;23.320;2023-07-20T03:54:00;22.8;73
77700;DHT22;66867;42.658;23.320;2023-07-20T03:55:00;22.8;73
77700;DHT22;66867;42.658;23.320;2023-07-20T03:56:00;22.8;73
77700;DHT22;66867;42.658;23.320;2023-07-20T03:57:00;22.8;73
77700;DHT22;66867;42.658;23.320;2023-07-20T03:58:00;22.8;72
77700;DHT22;66867;42.658;23.320;2023-07-20T03:59:00;22.8;72
77700;DHT22;66867;42.658;23.320;2023-07-20T04:00:00;22.8;73
77700;DHT22;66867;42.658;23.320;2023-07-20T04:01:00;22.8;72
77700;DHT22;66867;42.658;23.320;2023-07-20T04:02:00;22.8;72
77700;DHT22;66867;42.658;23.320;2023-07-20T04:03:00;22.8;72
77700;DHT22;66867;42.658;23.320;2023-07-20T04:04:00;22.9;72
77700;DHT22;66867;42.658;23.320;2023-07-20T04:05:00;22.8;72
77700;DHT22;66867;42.658;23.320;2023-07-20T04:06:00;22.9;72
77700;DHT22;66867;42.658;23.320;2023-07-20T04:07:00;22.9;73
77700;DHT22;66867;42.658;23.320;2023-07-20T04:08:00;22.9;72
77700;DHT22;66867;42.658;23.320;2023-07-20T04:09:00;22.9;72
77700;DHT22;66867;42.658;23.320;2023-07-20T04:10:00;22.9;72
77700;DHT22;66867;42.658;23.320;2023-07-20T04:11:01;23.0;71
77700;DHT22;66867;42.658;23.320;2023-07-20T04:12:00;23.0;71
77700;DHT22;66867;42.658;23.320;2023-07-20T04:13:00;23.0;71
77700;DHT22;66867;42.658;23.320;2023-07-20T04:14:00;23.0;71
77700;DHT22;66867;42.658;23.320;2023-07-20T04:15:00;23.0;71
77700;DHT22;66867;42.658;23.320;2023-07-20T04:16:00;23.0;71
77700;DHT22;66867;42.658;23.320;2023-07-20T04:17:00;23.0;71
77700;DHT22;66867;42.658;23.320;2023-07-20T04:18:00;23.1;71
77700;DHT22;66867;42.658;23.320;2023-07-20T04:19:00;23.1;71
77700;DHT22;66867;42.658;23.320;2023-07-20T04:20:00;23.1;71
77700;DHT22;66867;42.658;23.320;2023-07-20T04:21:00;23.1;71
77700;DHT22;66867;42.658;23.320;2023-07-20T04:22:00;23.1;71
77700;DHT22;66867;42.658;23.320;2023-07-20T04:23:00;23.1;71
77700;DHT22;66867;42.658;23.320;2023-07-20T04:24:00;23.1;71
77700;DHT22;66867;42.658;23.320;2023-07-20T04:25:00;23.1;72
77700;DHT22;66867;42.658;23.320;2023-07-20T04:26:00;23.1;72
77700;DHT22;66867;42.658;23.320;2023-07-20T04:27:00;23.1;72
77700;DHT22;66867;42.658;23.320;2023-07-20T04:28:00;23.2;71
77700;DHT22;66867;42.658;23.320;2023-07-20T04:29:00;23.1;71
77700;DHT22;66867;42.658;23.320;2023-07-20T04:30:00;23.2;72
77700;DHT22;66867;42.658;23.320;2023-07-20T04:31:16;23.1;72
77700;DHT22;66867;42.658;23.320;2023-07-20T04:32:00;23.1;72
77700;DHT22;66867;42.658;23.320;2023-07-20T04:33:00;23.1;72
77700;DHT22;66867;42.658;23.320;2023-07-20T04:34:00;23.1;72
77700;DHT22;66867;42.658;23.320;2023-07-20T04:35:00;23.1;73
77700;DHT22;66867;42.658;23.320;2023-07-20T04:36:00;23.1;73
77700;DHT22;66867;42.658;23.320;2023-07-20T04:37:00;23.1;73
77700;DHT22;66867;42.658;23.320;2023-07-20T04:38:00;23.1;73
77700;DHT22;66867;42.658;23.320;2023-07-20T04:39:00;23.1;72
77700;DHT22;66867;42.658;23.320;2023-07-20T04:40:00;23.2;73
77700;DHT22;66867;42.658;23.320;2023-07-20T04:41:00;23.2;72
77700;DHT22;66867;42.658;23.320;2023-07-20T04:42:00;23.2;72
77700;DHT22;66867;42.658;23.320;2023-07-20T04:43:00;23.1;72
77700;DHT22;66867;42.658;23.320;2023-07-20T04:44:00;23.1;73
77700;DHT22;66867;42.658;23.320;2023-07-20T04:45:00;23.2;73
77700;DHT22;66867;42.658;23.320;2023-07-20T04:46:00;23.2;73
77700;DHT22;66867;42.658;23.320;2023-07-20T04:47:00;23.2;72
77700;DHT22;66867;42.658;23.320;2023-07-20T04:48:00;23.2;73
77700;DHT22;66867;42.658;23.320;2023-07-20T04:49:00;23.3;73
77700;DHT22;66867;42.658;23.320;2023-07-20T04:50:00;23.3;73
77700;DHT22;66867;42.658;23.320;2023-07-20T04:51:00;23.3;73
77700;DHT22;66867;42.658;23.320;2023-07-20T04:52:00;23.3;72
77700;DHT22;66867;42.658;23.320;2023-07-20T04:53:00;23.3;72
77700;DHT22;66867;42.658;23.320;2023-07-20T04:54:00;23.3;72
77700;DHT22;66867;42.658;23.320;2023-07-20T04:55:00;23.4;72
77700;DHT22;66867;42.658;23.320;2023-07-20T04:56:00;23.4;72
77700;DHT22;66867;42.658;23.320;2023-07-20T04:57:00;23.4;71
77700;DHT22;66867;42.658;23.320;2023-07-20T04:58:00;23.4;72
77700;DHT22;66867;42.658;23.320;2023-07-20T04:59:00;23.4;71
77700;DHT22;66867;42.658;23.320;2023-07-20T05:00:00;23.4;71
77700;DHT22;66867;42.658;23.320;2023-07-20T05:01:00;23.4;71
77700;DHT22;66867;42.658;23.320;2023-07-20T05:02:00;23.5;71
77700;DHT22;66867;42.658;23.320;2023-07-20T05:03:00;23.5;70
77700;DHT22;66867;42.658;23.320;2023-07-20T05:04:01;23.5;70
77700;DHT22;66867;42.658;23.320;2023-07-20T05:05:00;23.5;70
77700;DHT22;66867;42.658;23.320;2023-07-20T05:06:00;23.5;70
77700;DHT22;66867;42.658;23.320;2023-07-20T05:07:00;23.6;70
77700;DHT22;66867;42.658;23.320;2023-07-20T05:08:00;23.5;70
77700;DHT22;66867;42.658;23.320;2023-07-20T05:09:00;23.6;70
77700;DHT22;66867;42.658;23.320;2023-07-20T05:10:00;23.6;70
77700;DHT22;66867;42.658;23.320;2023-07-20T05:11:00;23.5;70
77700;DHT22;66867;42.658;23.320;2023-07-20T05:12:00;23.6;70
77700;DHT22;66867;42.658;23.320;2023-07-20T05:13:00;23.6;70
77700;DHT22;66867;42.658;23.320;2023-07-20T05:14:00;23.6;70
77700;DHT22;66867;42.658;23.320;2023-07-20T05:15:00;23.7;69
77700;DHT22;66867;42.658;23.320;2023-07-20T05:16:00;23.7;69
77700;DHT22;66867;42.658;23.320;2023-07-20T05:17:00;23.7;69
77700;DHT22;66867;42.658;23.320;2023-07-20T05:18:00;23.7;69
77700;DHT22;66867;42.658;23.320;2023-07-20T05:19:00;23.7;69
77700;DHT22;66867;42.658;23.320;2023-07-20T05:20:00;23.8;68
77700;DHT22;66867;42.658;23.320;2023-07-20T05:21:00;23.8;68
77700;DHT22;66867;42.658;23.320;2023-07-20T05:22:00;23.8;68
77700;DHT22;66867;42.658;23.320;2023-07-20T05:23:00;23.8;68
77700;DHT22;66867;42.658;23.320;2023-07-20T05:24:00;23.9;69
77700;DHT22;66867;42.658;23.320;2023-07-20T05:25:00;23.9;68
77700;DHT22;66867;42.658;23.320;2023-07-20T05:26:00;23.9;68
77700;DHT22;66867;42.658;23.320;2023-07-20T05:27:00;24.0;68
77700;DHT22;66867;42.658;23.320;2023-07-20T05:28:00;24.0;68
77700;DHT22;66867;42.658;23.320;2023-07-20T05:29:00;24.0;68
77700;DHT22;66867;42.658;23.320;2023-07-20T05:30:00;24.1;68
77700;DHT22;66867;42.658;23.320;2023-07-20T05:31:02;24.1;68
77700;DHT22;66867;42.658;23.320;2023-07-20T05:32:00;24.1;68
77700;DHT22;66867;42.658;23.320;2023-07-20T05:33:00;24.1;69
77700;DHT22;66867;42.658;23.320;2023-07-20T05:34:00;24.1;69
77700;DHT22;66867;42.658;23.320;2023-07-20T05:35:00;24.1;69
77700;DHT22;66867;42.658;23.320;2023-07-20T05:36:00;24.2;69
77700;DHT22;66867;42.658;23.320;2023-07-20T05:37:00;24.2;69
77700;DHT22;66867;42.658;23.320;2023-07-20T05:38:00;24.2;69
77700;DHT22;66867;42.658;23.320;2023-07-20T05:39:00;24.2;69
77700;DHT22;66867;42.658;23.320;2023-07-20T05:40:00;24.3;69
77700;DHT22;66867;42.658;23.320;2023-07-20T05:41:00;24.3;69
77700;DHT22;66867;42.658;23.320;2023-07-20T05:42:00;24.3;69
77700;DHT22;66867;42.658;23.320;2023-07-20T05:43:00;24.4;69
77700;DHT22;66867;42.658;23.320;2023-07-20T05:44:00;24.4;69
77700;DHT22;66867;42.658;23.320;2023-07-20T05:45:00;24.4;69
77700;DHT22;66867;42.658;23.320;2023-07-20T05:46:00;24.5;68
77700;DHT22;66867;42.658;23.320;2023-07-20T05:47:00;24.5;68
77700;DHT22;66867;42.658;23.320;2023-07-20T05:48:00;24.5;68
77700;DHT22;66867;42.658;23.320;2023-07-20T05:49:00;24.6;68
77700;DHT22;66867;42.658;23.320;2023-07-20T05:50:00;24.6;68
77700;DHT22;66867;42.658;23.320;2023-07-20T05:51:00;24.6;68
77700;DHT22;66867;42.658;23.320;2023-07-20T05:52:00;24.7;68
77700;DHT22;66867;42.658;23.320;2023-07-20T05:53:00;24.7;68
77700;DHT22;66867;42.658;23.320;2023-07-20T05:54:00;24.7;67
77700;DHT22;66867;42.658;23.320;2023-07-20T05:55:00;24.8;67
77700;DHT22;66867;42.658;23.320;2023-07-20T05:56:00;24.8;69
77700;DHT22;66867;42.658;23.320;2023-07-20T05:57:00;24.9;68
77700;DHT22;66867;42.658;23.320;2023-07-20T05:58:00;24.9;68
77700;DHT22;66867;42.658;23.320;2023-07-20T05:59:00;25.0;68
77700;DHT22;66867;42.658;23.320;2023-07-20T06:00:00;25.0;67
77700;DHT22;66867;42.658;23.320;2023-07-20T06:01:00;25.0;67
77700;DHT22;66867;42.658;23.320;2023-07-20T06:02:00;25.0;66
77700;DHT22;66867;42.658;23.320;2023-07-20T06:03:00;25.1;66
77700;DHT22;66867;42.658;23.320;2023-07-20T06:04:00;25.1;65
77700;DHT22;66867;42.658;23.320;2023-07-20T06:05:00;25.1;65
77700;DHT22;66867;42.658;23.320;2023-07-20T06:06:00;25.1;65
77700;DHT22;66867;42.658;23.320;2023-07-20T06:07:00;25.1;65
77700;DHT22;66867;42.658;23.320;2023-07-20T06:08:00;25.2;65
77700;DHT22;66867;42.658;23.320;2023-07-20T06:09:00;25.2;64
77700;DHT22;66867;42.658;23.320;2023-07-20T06:10:00;25.2;64
77700;DHT22;66867;42.658;23.320;2023-07-20T06:11:00;25.3;64
77700;DHT22;66867;42.658;23.320;2023-07-20T06:12:00;25.3;64
77700;DHT22;66867;42.658;23.320;2023-07-20T06:13:00;25.3;64
77700;DHT22;66867;42.658;23.320;2023-07-20T06:14:00;25.3;64
77700;DHT22;66867;42.658;23.320;2023-07-20T06:15:02;25.4;64
77700;DHT22;66867;42.658;23.320;2023-07-20T06:16:00;25.4;66
77700;DHT22;66867;42.658;23.320;2023-07-20T06:17:00;25.5;66
77700;DHT22;66867;42.658;23.320;2023-07-20T06:18:00;25.5;66
77700;DHT22;66867;42.658;23.320;2023-07-20T06:19:00;25.5;65
77700;DHT22;66867;42.658;23.320;2023-07-20T06:20:00;25.6;64
77700;DHT22;66867;42.658;23.320;2023-07-20T06:21:00;25.6;64
77700;DHT22;66867;42.658;23.320;2023-07-20T06:22:00;25.7;64
77700;DHT22;66867;42.658;23.320;2023-07-20T06:23:00;25.7;63
77700;DHT22;66867;42.658;23.320;2023-07-20T06:24:00;25.7;64
77700;DHT22;66867;42.658;23.320;2023-07-20T06:25:00;25.7;63
77700;DHT22;66867;42.658;23.320;2023-07-20T06:26:00;25.7;64
77700;DHT22;66867;42.658;23.320;2023-07-20T06:27:00;25.7;63
77700;DHT22;66867;42.658;23.320;2023-07-20T06:28:00;25.8;64
77700;DHT22;66867;42.658;23.320;2023-07-20T06:29:00;25.8;64
77700;DHT22;66867;42.658;23.320;2023-07-20T06:30:00;25.9;63
77700;DHT22;66867;42.658;23.320;2023-07-20T06:31:00;25.9;63
77700;DHT22;66867;42.658;23.320;2023-07-20T06:32:00;25.9;63
77700;DHT22;66867;42.658;23.320;2023-07-20T06:33:00;26.0;63
77700;DHT22;66867;42.658;23.320;2023-07-20T06:34:01;26.0;63
77700;DHT22;66867;42.658;23.320;2023-07-20T06:35:00;26.0;62
77700;DHT22;66867;42.658;23.320;2023-07-20T06:36:00;26.0;62
77700;DHT22;66867;42.658;23.320;2023-07-20T06:37:00;26.1;62
77700;DHT22;66867;42.658;23.320;2023-07-20T06:38:00;26.1;62
77700;DHT22;66867;42.658;23.320;2023-07-20T06:39:00;26.2;62
77700;DHT22;66867;42.658;23.320;2023-07-20T06:40:01;26.2;62
77700;DHT22;66867;42.658;23.320;2023-07-20T06:41:00;26.3;62
77700;DHT22;66867;42.658;23.320;2023-07-20T06:42:00;26.3;63
77700;DHT22;66867;42.658;23.320;2023-07-20T06:43:00;26.4;64
77700;DHT22;66867;42.658;23.320;2023-07-20T06:44:00;26.4;62